Clarksville, Florida
Current Conditions -  °F | °C
As of 10:53 AM on Tuesday 27 Jan 2015 (Local Time) from KMAI Reporting Station
Clear Clear  
Wind Chill: 57°   Ceiling: Unl
Heat Index: 57°   Visibility: 10mi
Dew Point: 39°   Wind: 9mph
Humidity: 51%   Direction: 290°WNW
Pressure: 30.01"   Gusts: NA
Location:  30.47°N, 85.05°W
Report Text: KMAI 271653Z AUTO 29008KT 10SM CLR 14/04 A3001 RMK AO2 SLP163 T01390039
Loading
Personal Weather Stations






























Interactive Weather Map New forecast layout! Learn more

10-Day Weather Forecast

Advertisements
Track Severe Weather on mobile